In Rescue
 
Open Full Screen Window  High Contrast Mode
Wind Gusting 00 knots
06
September 19, 2019 4:16 PM CDT
Weather Information
Wind Direction
  020 °
Wind Speed
  06 kt (7 mph)
Wind Gust
  00 kt (0 mph)
Altimeter
30.02 in
Visibility
10 SM
Temperature
18° C
64° F
Dewpoint
13° C
55° F
Humidity
73%
1hr Rain Fall
00.00 in.
24hr Rain Fall
00.00 in.
Sky Condition
Missing
VFR

METAR KFGN 192116Z AUTO 02006KT 10SM 18/13 A3002 RMK AO2

FAA Disclaimer: The data displayed is for advisory purposes only and is not to be used for flight planning or operations.
Missing Cloud Data